sensor_id;sensor_type;location;lat;lon;timestamp;temperature;humidity
43520;DHT22;46848;51.980;5.918;2024-01-30T00:01:15;10.00;79.80
43520;DHT22;46848;51.980;5.918;2024-01-30T00:03:42;10.00;79.90
43520;DHT22;46848;51.980;5.918;2024-01-30T00:06:11;10.00;80.00
43520;DHT22;46848;51.980;5.918;2024-01-30T00:08:37;9.90;79.90
43520;DHT22;46848;51.980;5.918;2024-01-30T00:11:03;9.90;80.40
43520;DHT22;46848;51.980;5.918;2024-01-30T00:13:28;9.90;80.40
43520;DHT22;46848;51.980;5.918;2024-01-30T00:15:54;9.90;80.50
43520;DHT22;46848;51.980;5.918;2024-01-30T00:18:19;9.80;80.60
43520;DHT22;46848;51.980;5.918;2024-01-30T00:20:45;9.90;80.60
43520;DHT22;46848;51.980;5.918;2024-01-30T00:23:11;9.80;80.50
43520;DHT22;46848;51.980;5.918;2024-01-30T00:25:36;9.80;80.60
43520;DHT22;46848;51.980;5.918;2024-01-30T00:28:02;9.80;80.60
43520;DHT22;46848;51.980;5.918;2024-01-30T00:30:28;9.80;80.60
43520;DHT22;46848;51.980;5.918;2024-01-30T00:32:54;9.80;80.70
43520;DHT22;46848;51.980;5.918;2024-01-30T00:35:19;9.80;80.60
43520;DHT22;46848;51.980;5.918;2024-01-30T00:37:47;9.80;80.60
43520;DHT22;46848;51.980;5.918;2024-01-30T00:40:13;9.80;80.70
43520;DHT22;46848;51.980;5.918;2024-01-30T00:42:42;9.70;80.80
43520;DHT22;46848;51.980;5.918;2024-01-30T00:45:12;9.60;80.90
43520;DHT22;46848;51.980;5.918;2024-01-30T00:47:38;9.60;81.10
43520;DHT22;46848;51.980;5.918;2024-01-30T00:50:04;9.70;81.10
43520;DHT22;46848;51.980;5.918;2024-01-30T00:52:30;9.60;81.00
43520;DHT22;46848;51.980;5.918;2024-01-30T00:54:55;9.60;80.90
43520;DHT22;46848;51.980;5.918;2024-01-30T00:57:21;9.60;80.80
43520;DHT22;46848;51.980;5.918;2024-01-30T00:59:47;9.70;80.90
43520;DHT22;46848;51.980;5.918;2024-01-30T01:02:12;9.70;80.90
43520;DHT22;46848;51.980;5.918;2024-01-30T01:04:39;9.60;80.80
43520;DHT22;46848;51.980;5.918;2024-01-30T01:07:04;9.70;80.80
43520;DHT22;46848;51.980;5.918;2024-01-30T01:09:30;9.60;80.80
43520;DHT22;46848;51.980;5.918;2024-01-30T01:11:55;9.60;80.80
43520;DHT22;46848;51.980;5.918;2024-01-30T01:14:21;9.60;80.80
43520;DHT22;46848;51.980;5.918;2024-01-30T01:16:46;9.60;80.80
43520;DHT22;46848;51.980;5.918;2024-01-30T01:19:12;9.60;80.90
43520;DHT22;46848;51.980;5.918;2024-01-30T01:21:37;9.60;81.20
43520;DHT22;46848;51.980;5.918;2024-01-30T01:24:03;9.60;81.10
43520;DHT22;46848;51.980;5.918;2024-01-30T01:26:29;9.50;81.10
43520;DHT22;46848;51.980;5.918;2024-01-30T01:28:55;9.50;81.10
43520;DHT22;46848;51.980;5.918;2024-01-30T01:31:21;9.50;81.10
43520;DHT22;46848;51.980;5.918;2024-01-30T01:33:50;9.60;81.10
43520;DHT22;46848;51.980;5.918;2024-01-30T01:36:15;9.50;81.10
43520;DHT22;46848;51.980;5.918;2024-01-30T01:38:41;9.50;81.10
43520;DHT22;46848;51.980;5.918;2024-01-30T01:41:06;9.50;81.10
43520;DHT22;46848;51.980;5.918;2024-01-30T01:43:32;9.40;81.00
43520;DHT22;46848;51.980;5.918;2024-01-30T01:45:58;9.40;81.10
43520;DHT22;46848;51.980;5.918;2024-01-30T01:48:23;9.40;81.00
43520;DHT22;46848;51.980;5.918;2024-01-30T01:50:49;9.40;81.10
43520;DHT22;46848;51.980;5.918;2024-01-30T01:53:15;9.40;81.10
43520;DHT22;46848;51.980;5.918;2024-01-30T01:55:41;9.40;81.10
43520;DHT22;46848;51.980;5.918;2024-01-30T01:58:07;9.40;81.00
43520;DHT22;46848;51.980;5.918;2024-01-30T02:00:35;9.40;81.00
43520;DHT22;46848;51.980;5.918;2024-01-30T02:03:01;9.40;81.00
43520;DHT22;46848;51.980;5.918;2024-01-30T02:05:27;9.40;81.00
43520;DHT22;46848;51.980;5.918;2024-01-30T02:07:54;9.40;80.90
43520;DHT22;46848;51.980;5.918;2024-01-30T02:10:20;9.40;80.90
43520;DHT22;46848;51.980;5.918;2024-01-30T02:12:45;9.40;80.90
43520;DHT22;46848;51.980;5.918;2024-01-30T02:15:13;9.40;80.90
43520;DHT22;46848;51.980;5.918;2024-01-30T02:17:39;9.40;80.80
43520;DHT22;46848;51.980;5.918;2024-01-30T02:20:05;9.40;80.80
43520;DHT22;46848;51.980;5.918;2024-01-30T02:22:32;9.40;80.90
43520;DHT22;46848;51.980;5.918;2024-01-30T02:24:59;9.30;80.80
43520;DHT22;46848;51.980;5.918;2024-01-30T02:27:25;9.30;80.90
43520;DHT22;46848;51.980;5.918;2024-01-30T02:29:50;9.30;80.90
43520;DHT22;46848;51.980;5.918;2024-01-30T02:32:16;9.30;80.90
43520;DHT22;46848;51.980;5.918;2024-01-30T02:34:42;9.30;80.90
43520;DHT22;46848;51.980;5.918;2024-01-30T02:37:08;9.30;80.90
43520;DHT22;46848;51.980;5.918;2024-01-30T02:39:33;9.30;81.00
43520;DHT22;46848;51.980;5.918;2024-01-30T02:41:59;9.30;81.00
43520;DHT22;46848;51.980;5.918;2024-01-30T02:44:24;9.20;81.10
43520;DHT22;46848;51.980;5.918;2024-01-30T02:46:50;9.20;81.10
43520;DHT22;46848;51.980;5.918;2024-01-30T02:49:15;9.10;81.10
43520;DHT22;46848;51.980;5.918;2024-01-30T02:51:41;9.20;81.20
43520;DHT22;46848;51.980;5.918;2024-01-30T02:54:06;9.20;81.00
43520;DHT22;46848;51.980;5.918;2024-01-30T02:56:32;9.20;81.00
43520;DHT22;46848;51.980;5.918;2024-01-30T02:58:58;9.20;80.90
43520;DHT22;46848;51.980;5.918;2024-01-30T03:01:23;9.20;81.20
43520;DHT22;46848;51.980;5.918;2024-01-30T03:04:14;9.20;81.30
43520;DHT22;46848;51.980;5.918;2024-01-30T03:06:44;9.20;81.20
43520;DHT22;46848;51.980;5.918;2024-01-30T03:09:10;9.20;81.20
43520;DHT22;46848;51.980;5.918;2024-01-30T03:11:36;9.20;81.10
43520;DHT22;46848;51.980;5.918;2024-01-30T03:14:01;9.30;81.70
43520;DHT22;46848;51.980;5.918;2024-01-30T03:16:27;9.30;81.20
43520;DHT22;46848;51.980;5.918;2024-01-30T03:18:52;9.30;81.30
43520;DHT22;46848;51.980;5.918;2024-01-30T03:21:18;9.30;81.30
43520;DHT22;46848;51.980;5.918;2024-01-30T03:23:43;9.30;81.40
43520;DHT22;46848;51.980;5.918;2024-01-30T03:26:09;9.20;81.40
43520;DHT22;46848;51.980;5.918;2024-01-30T03:28:36;9.20;81.40
43520;DHT22;46848;51.980;5.918;2024-01-30T03:31:01;9.20;81.50
43520;DHT22;46848;51.980;5.918;2024-01-30T03:33:27;9.10;81.40
43520;DHT22;46848;51.980;5.918;2024-01-30T03:35:53;9.10;81.50
43520;DHT22;46848;51.980;5.918;2024-01-30T03:38:19;9.10;81.50
43520;DHT22;46848;51.980;5.918;2024-01-30T03:40:44;9.10;81.50
43520;DHT22;46848;51.980;5.918;2024-01-30T03:43:10;9.10;81.50
43520;DHT22;46848;51.980;5.918;2024-01-30T03:45:35;9.10;81.40
43520;DHT22;46848;51.980;5.918;2024-01-30T03:48:01;9.10;81.40
43520;DHT22;46848;51.980;5.918;2024-01-30T03:50:26;9.10;81.40
43520;DHT22;46848;51.980;5.918;2024-01-30T03:52:53;9.10;81.50
43520;DHT22;46848;51.980;5.918;2024-01-30T03:55:18;9.10;81.70
43520;DHT22;46848;51.980;5.918;2024-01-30T03:57:44;9.20;82.00
43520;DHT22;46848;51.980;5.918;2024-01-30T04:00:10;9.10;81.90
43520;DHT22;46848;51.980;5.918;2024-01-30T04:02:36;9.10;81.70
43520;DHT22;46848;51.980;5.918;2024-01-30T04:05:01;9.10;81.60
43520;DHT22;46848;51.980;5.918;2024-01-30T04:07:27;9.20;81.60
43520;DHT22;46848;51.980;5.918;2024-01-30T04:09:52;9.20;81.50
43520;DHT22;46848;51.980;5.918;2024-01-30T04:12:18;9.20;81.40
43520;DHT22;46848;51.980;5.918;2024-01-30T04:14:43;9.20;81.40
43520;DHT22;46848;51.980;5.918;2024-01-30T04:17:09;9.30;81.30
43520;DHT22;46848;51.980;5.918;2024-01-30T04:19:37;9.20;81.20
43520;DHT22;46848;51.980;5.918;2024-01-30T04:22:03;9.30;81.10
43520;DHT22;46848;51.980;5.918;2024-01-30T04:24:29;9.30;81.10
43520;DHT22;46848;51.980;5.918;2024-01-30T04:26:54;9.20;81.70
43520;DHT22;46848;51.980;5.918;2024-01-30T04:29:20;9.20;81.10
43520;DHT22;46848;51.980;5.918;2024-01-30T04:31:45;9.30;81.10
43520;DHT22;46848;51.980;5.918;2024-01-30T04:34:11;9.30;81.10
43520;DHT22;46848;51.980;5.918;2024-01-30T04:36:36;9.30;81.10
43520;DHT22;46848;51.980;5.918;2024-01-30T04:39:02;9.30;81.10
43520;DHT22;46848;51.980;5.918;2024-01-30T04:41:29;9.30;81.10
43520;DHT22;46848;51.980;5.918;2024-01-30T04:43:56;9.30;81.10
43520;DHT22;46848;51.980;5.918;2024-01-30T04:46:22;9.30;81.10
43520;DHT22;46848;51.980;5.918;2024-01-30T04:48:47;9.30;81.20
43520;DHT22;46848;51.980;5.918;2024-01-30T04:51:13;9.20;81.30
43520;DHT22;46848;51.980;5.918;2024-01-30T04:53:38;9.20;81.40
43520;DHT22;46848;51.980;5.918;2024-01-30T04:56:05;9.20;81.40
43520;DHT22;46848;51.980;5.918;2024-01-30T04:58:31;9.20;81.40
43520;DHT22;46848;51.980;5.918;2024-01-30T05:00:56;9.20;81.30
43520;DHT22;46848;51.980;5.918;2024-01-30T05:03:22;9.20;81.40
43520;DHT22;46848;51.980;5.918;2024-01-30T05:05:49;9.30;81.50
43520;DHT22;46848;51.980;5.918;2024-01-30T05:08:14;9.20;81.50
43520;DHT22;46848;51.980;5.918;2024-01-30T05:10:40;9.20;81.50
43520;DHT22;46848;51.980;5.918;2024-01-30T05:13:05;9.20;81.50
43520;DHT22;46848;51.980;5.918;2024-01-30T05:15:31;9.20;81.50
43520;DHT22;46848;51.980;5.918;2024-01-30T05:17:57;9.20;81.60
43520;DHT22;46848;51.980;5.918;2024-01-30T05:20:22;9.20;81.60
43520;DHT22;46848;51.980;5.918;2024-01-30T05:22:48;9.20;81.70
43520;DHT22;46848;51.980;5.918;2024-01-30T05:25:13;9.20;81.60
43520;DHT22;46848;51.980;5.918;2024-01-30T05:27:39;9.20;81.60
43520;DHT22;46848;51.980;5.918;2024-01-30T05:30:06;9.20;81.50
43520;DHT22;46848;51.980;5.918;2024-01-30T05:32:32;9.20;81.50
43520;DHT22;46848;51.980;5.918;2024-01-30T05:34:57;9.30;81.50
43520;DHT22;46848;51.980;5.918;2024-01-30T05:37:23;9.30;81.50
43520;DHT22;46848;51.980;5.918;2024-01-30T05:39:49;9.30;81.40
43520;DHT22;46848;51.980;5.918;2024-01-30T05:42:14;9.30;81.40
43520;DHT22;46848;51.980;5.918;2024-01-30T05:44:42;9.30;81.40
43520;DHT22;46848;51.980;5.918;2024-01-30T05:47:07;9.40;81.50
43520;DHT22;46848;51.980;5.918;2024-01-30T05:49:33;9.40;81.40
43520;DHT22;46848;51.980;5.918;2024-01-30T05:51:59;9.40;81.50
43520;DHT22;46848;51.980;5.918;2024-01-30T05:54:24;9.40;81.80
43520;DHT22;46848;51.980;5.918;2024-01-30T05:56:50;9.50;81.90
43520;DHT22;46848;51.980;5.918;2024-01-30T05:59:15;9.40;81.80
43520;DHT22;46848;51.980;5.918;2024-01-30T06:01:47;9.40;81.80
43520;DHT22;46848;51.980;5.918;2024-01-30T06:04:13;9.40;82.00
43520;DHT22;46848;51.980;5.918;2024-01-30T06:06:40;9.40;82.00
43520;DHT22;46848;51.980;5.918;2024-01-30T06:09:05;9.50;82.00
43520;DHT22;46848;51.980;5.918;2024-01-30T06:11:31;9.50;82.00
43520;DHT22;46848;51.980;5.918;2024-01-30T06:13:57;9.50;82.00
43520;DHT22;46848;51.980;5.918;2024-01-30T06:16:23;9.50;81.90
43520;DHT22;46848;51.980;5.918;2024-01-30T06:18:48;9.50;81.90
43520;DHT22;46848;51.980;5.918;2024-01-30T06:21:14;9.60;82.50
43520;DHT22;46848;51.980;5.918;2024-01-30T06:23:40;9.50;81.90
43520;DHT22;46848;51.980;5.918;2024-01-30T06:26:06;9.50;82.00
43520;DHT22;46848;51.980;5.918;2024-01-30T06:28:32;9.60;82.20
43520;DHT22;46848;51.980;5.918;2024-01-30T06:31:01;9.60;82.20
43520;DHT22;46848;51.980;5.918;2024-01-30T06:33:26;9.60;82.20
43520;DHT22;46848;51.980;5.918;2024-01-30T06:35:52;9.70;82.30
43520;DHT22;46848;51.980;5.918;2024-01-30T06:38:17;9.70;82.20
43520;DHT22;46848;51.980;5.918;2024-01-30T06:40:43;9.70;82.20
43520;DHT22;46848;51.980;5.918;2024-01-30T06:43:08;9.80;82.30
43520;DHT22;46848;51.980;5.918;2024-01-30T06:45:34;9.80;82.30
43520;DHT22;46848;51.980;5.918;2024-01-30T06:48:00;9.90;82.30
43520;DHT22;46848;51.980;5.918;2024-01-30T06:50:26;10.00;82.20
43520;DHT22;46848;51.980;5.918;2024-01-30T06:52:51;10.00;82.20
43520;DHT22;46848;51.980;5.918;2024-01-30T06:55:18;10.10;82.20
43520;DHT22;46848;51.980;5.918;2024-01-30T06:57:43;10.20;82.30
43520;DHT22;46848;51.980;5.918;2024-01-30T07:00:10;10.20;82.50
43520;DHT22;46848;51.980;5.918;2024-01-30T07:02:35;10.20;82.40
43520;DHT22;46848;51.980;5.918;2024-01-30T07:05:02;10.30;83.10
43520;DHT22;46848;51.980;5.918;2024-01-30T07:07:28;10.30;82.40
43520;DHT22;46848;51.980;5.918;2024-01-30T07:09:54;10.40;82.30
43520;DHT22;46848;51.980;5.918;2024-01-30T07:12:22;10.50;82.30
43520;DHT22;46848;51.980;5.918;2024-01-30T07:14:50;10.50;82.20
43520;DHT22;46848;51.980;5.918;2024-01-30T07:17:15;10.60;82.10
43520;DHT22;46848;51.980;5.918;2024-01-30T07:19:41;10.60;82.00
43520;DHT22;46848;51.980;5.918;2024-01-30T07:22:07;10.70;82.10
43520;DHT22;46848;51.980;5.918;2024-01-30T07:24:33;10.70;82.00
43520;DHT22;46848;51.980;5.918;2024-01-30T07:26:58;10.80;82.00
43520;DHT22;46848;51.980;5.918;2024-01-30T07:29:24;10.90;81.90
43520;DHT22;46848;51.980;5.918;2024-01-30T07:31:50;10.90;81.90
43520;DHT22;46848;51.980;5.918;2024-01-30T07:34:15;10.90;81.80
43520;DHT22;46848;51.980;5.918;2024-01-30T07:36:41;10.90;81.70
43520;DHT22;46848;51.980;5.918;2024-01-30T07:39:06;11.00;81.70
43520;DHT22;46848;51.980;5.918;2024-01-30T07:41:32;11.00;81.60
43520;DHT22;46848;51.980;5.918;2024-01-30T07:43:58;11.10;81.60
43520;DHT22;46848;51.980;5.918;2024-01-30T07:46:23;11.10;81.50
43520;DHT22;46848;51.980;5.918;2024-01-30T07:48:49;11.10;81.50
43520;DHT22;46848;51.980;5.918;2024-01-30T07:51:15;11.10;81.50
43520;DHT22;46848;51.980;5.918;2024-01-30T07:53:40;11.20;81.60
43520;DHT22;46848;51.980;5.918;2024-01-30T07:56:07;11.10;81.60
43520;DHT22;46848;51.980;5.918;2024-01-30T07:58:32;11.20;81.60
43520;DHT22;46848;51.980;5.918;2024-01-30T08:00:58;11.20;81.50
43520;DHT22;46848;51.980;5.918;2024-01-30T08:03:25;11.20;81.50
43520;DHT22;46848;51.980;5.918;2024-01-30T08:05:51;11.20;81.50
43520;DHT22;46848;51.980;5.918;2024-01-30T08:08:17;11.30;81.50
43520;DHT22;46848;51.980;5.918;2024-01-30T08:10:42;11.30;81.40
43520;DHT22;46848;51.980;5.918;2024-01-30T08:13:08;11.30;81.30
43520;DHT22;46848;51.980;5.918;2024-01-30T08:15:34;11.30;81.20
43520;DHT22;46848;51.980;5.918;2024-01-30T08:18:00;11.30;81.20
43520;DHT22;46848;51.980;5.918;2024-01-30T08:20:25;11.40;81.20
43520;DHT22;46848;51.980;5.918;2024-01-30T08:22:52;11.40;81.20
43520;DHT22;46848;51.980;5.918;2024-01-30T08:25:17;11.50;81.30
43520;DHT22;46848;51.980;5.918;2024-01-30T08:27:43;11.50;81.10
43520;DHT22;46848;51.980;5.918;2024-01-30T08:30:10;11.50;81.00
43520;DHT22;46848;51.980;5.918;2024-01-30T08:32:36;11.60;81.00
43520;DHT22;46848;51.980;5.918;2024-01-30T08:35:01;11.60;80.90
43520;DHT22;46848;51.980;5.918;2024-01-30T08:37:30;11.60;80.90
43520;DHT22;46848;51.980;5.918;2024-01-30T08:39:56;11.60;80.80
43520;DHT22;46848;51.980;5.918;2024-01-30T08:42:23;11.70;80.80
43520;DHT22;46848;51.980;5.918;2024-01-30T08:44:49;11.70;80.80
43520;DHT22;46848;51.980;5.918;2024-01-30T08:47:16;11.80;80.80
43520;DHT22;46848;51.980;5.918;2024-01-30T08:49:43;11.80;80.70
43520;DHT22;46848;51.980;5.918;2024-01-30T08:52:12;11.80;80.60
43520;DHT22;46848;51.980;5.918;2024-01-30T08:54:38;11.80;80.60
43520;DHT22;46848;51.980;5.918;2024-01-30T08:57:03;11.90;80.50
43520;DHT22;46848;51.980;5.918;2024-01-30T08:59:29;11.90;80.50
43520;DHT22;46848;51.980;5.918;2024-01-30T09:01:55;11.90;80.40
43520;DHT22;46848;51.980;5.918;2024-01-30T09:04:23;11.90;80.40
43520;DHT22;46848;51.980;5.918;2024-01-30T09:06:49;11.90;80.40
43520;DHT22;46848;51.980;5.918;2024-01-30T09:09:14;12.00;80.40
43520;DHT22;46848;51.980;5.918;2024-01-30T09:11:40;12.00;80.40
43520;DHT22;46848;51.980;5.918;2024-01-30T09:14:06;12.00;80.40
43520;DHT22;46848;51.980;5.918;2024-01-30T09:16:31;12.10;80.40
43520;DHT22;46848;51.980;5.918;2024-01-30T09:18:57;12.10;80.40
43520;DHT22;46848;51.980;5.918;2024-01-30T09:21:23;12.10;80.50
43520;DHT22;46848;51.980;5.918;2024-01-30T09:23:49;12.10;80.30
43520;DHT22;46848;51.980;5.918;2024-01-30T09:26:14;12.10;80.20
43520;DHT22;46848;51.980;5.918;2024-01-30T09:28:40;12.10;80.20
43520;DHT22;46848;51.980;5.918;2024-01-30T09:31:11;12.20;80.20
43520;DHT22;46848;51.980;5.918;2024-01-30T09:33:36;12.20;80.20
43520;DHT22;46848;51.980;5.918;2024-01-30T09:36:02;12.20;80.20
43520;DHT22;46848;51.980;5.918;2024-01-30T09:38:28;12.20;80.30
43520;DHT22;46848;51.980;5.918;2024-01-30T09:40:54;12.20;80.80
43520;DHT22;46848;51.980;5.918;2024-01-30T09:43:23;12.20;80.10
43520;DHT22;46848;51.980;5.918;2024-01-30T09:45:50;12.30;80.10
43520;DHT22;46848;51.980;5.918;2024-01-30T09:48:16;12.30;80.00
43520;DHT22;46848;51.980;5.918;2024-01-30T09:50:42;12.30;79.90
43520;DHT22;46848;51.980;5.918;2024-01-30T09:53:11;12.30;79.80
43520;DHT22;46848;51.980;5.918;2024-01-30T09:55:40;12.40;79.80
43520;DHT22;46848;51.980;5.918;2024-01-30T09:58:08;12.30;79.70
43520;DHT22;46848;51.980;5.918;2024-01-30T10:00:33;12.30;79.70
43520;DHT22;46848;51.980;5.918;2024-01-30T10:02:59;12.40;80.00
43520;DHT22;46848;51.980;5.918;2024-01-30T10:05:27;12.40;80.00
43520;DHT22;46848;51.980;5.918;2024-01-30T10:07:54;12.40;80.00
43520;DHT22;46848;51.980;5.918;2024-01-30T10:10:22;12.40;80.00
43520;DHT22;46848;51.980;5.918;2024-01-30T10:12:49;12.40;79.90
43520;DHT22;46848;51.980;5.918;2024-01-30T10:15:14;12.40;80.50
43520;DHT22;46848;51.980;5.918;2024-01-30T10:17:40;12.50;80.00
43520;DHT22;46848;51.980;5.918;2024-01-30T10:20:06;12.50;79.90
43520;DHT22;46848;51.980;5.918;2024-01-30T10:22:33;12.50;79.70
43520;DHT22;46848;51.980;5.918;2024-01-30T10:25:00;12.60;79.50
43520;DHT22;46848;51.980;5.918;2024-01-30T10:27:29;12.60;79.40
43520;DHT22;46848;51.980;5.918;2024-01-30T10:29:55;12.60;79.60
43520;DHT22;46848;51.980;5.918;2024-01-30T10:32:21;12.60;79.40
43520;DHT22;46848;51.980;5.918;2024-01-30T10:34:47;12.60;79.40
43520;DHT22;46848;51.980;5.918;2024-01-30T10:37:13;12.60;79.50
43520;DHT22;46848;51.980;5.918;2024-01-30T10:39:42;12.70;79.60
43520;DHT22;46848;51.980;5.918;2024-01-30T10:42:17;12.70;79.50
43520;DHT22;46848;51.980;5.918;2024-01-30T10:44:44;12.60;79.40
43520;DHT22;46848;51.980;5.918;2024-01-30T10:47:17;12.70;79.40
43520;DHT22;46848;51.980;5.918;2024-01-30T10:49:43;12.70;79.60
43520;DHT22;46848;51.980;5.918;2024-01-30T10:52:12;12.70;79.70
43520;DHT22;46848;51.980;5.918;2024-01-30T10:54:40;12.70;79.70
43520;DHT22;46848;51.980;5.918;2024-01-30T10:57:06;12.70;79.70
43520;DHT22;46848;51.980;5.918;2024-01-30T10:59:32;12.80;79.70
43520;DHT22;46848;51.980;5.918;2024-01-30T11:01:59;12.80;80.20
43520;DHT22;46848;51.980;5.918;2024-01-30T11:04:25;12.80;79.40
43520;DHT22;46848;51.980;5.918;2024-01-30T11:06:51;12.80;79.40
43520;DHT22;46848;51.980;5.918;2024-01-30T11:09:17;12.90;79.50
43520;DHT22;46848;51.980;5.918;2024-01-30T11:11:50;12.90;79.30
43520;DHT22;46848;51.980;5.918;2024-01-30T11:14:15;12.90;79.30
43520;DHT22;46848;51.980;5.918;2024-01-30T11:16:41;12.90;79.50
43520;DHT22;46848;51.980;5.918;2024-01-30T11:19:10;12.90;79.20
43520;DHT22;46848;51.980;5.918;2024-01-30T11:21:43;12.90;79.10
43520;DHT22;46848;51.980;5.918;2024-01-30T11:24:08;12.90;79.10
43520;DHT22;46848;51.980;5.918;2024-01-30T11:26:34;13.00;79.50
43520;DHT22;46848;51.980;5.918;2024-01-30T11:29:03;13.00;79.40
43520;DHT22;46848;51.980;5.918;2024-01-30T11:31:29;13.10;79.50
43520;DHT22;46848;51.980;5.918;2024-01-30T11:33:56;13.10;79.40
43520;DHT22;46848;51.980;5.918;2024-01-30T11:36:25;13.20;79.20
43520;DHT22;46848;51.980;5.918;2024-01-30T11:38:52;13.20;79.10
43520;DHT22;46848;51.980;5.918;2024-01-30T11:41:19;13.30;79.20
43520;DHT22;46848;51.980;5.918;2024-01-30T11:43:54;13.30;79.10
43520;DHT22;46848;51.980;5.918;2024-01-30T11:46:20;13.30;79.60
43520;DHT22;46848;51.980;5.918;2024-01-30T11:48:46;13.30;78.90
43520;DHT22;46848;51.980;5.918;2024-01-30T11:51:13;13.30;78.90
43520;DHT22;46848;51.980;5.918;2024-01-30T11:53:39;13.40;78.90
43520;DHT22;46848;51.980;5.918;2024-01-30T11:56:06;13.50;79.00
43520;DHT22;46848;51.980;5.918;2024-01-30T11:58:31;13.50;79.00
43520;DHT22;46848;51.980;5.918;2024-01-30T12:00:57;13.50;78.90
43520;DHT22;46848;51.980;5.918;2024-01-30T12:03:23;13.50;78.60
43520;DHT22;46848;51.980;5.918;2024-01-30T12:05:56;13.60;78.50
43520;DHT22;46848;51.980;5.918;2024-01-30T12:08:22;13.60;78.30
43520;DHT22;46848;51.980;5.918;2024-01-30T12:10:55;13.60;78.20
43520;DHT22;46848;51.980;5.918;2024-01-30T12:13:21;13.60;78.20
43520;DHT22;46848;51.980;5.918;2024-01-30T12:15:47;13.60;78.10
43520;DHT22;46848;51.980;5.918;2024-01-30T12:18:12;13.60;78.00
43520;DHT22;46848;51.980;5.918;2024-01-30T12:20:38;13.60;78.00
43520;DHT22;46848;51.980;5.918;2024-01-30T12:23:04;13.60;77.90
43520;DHT22;46848;51.980;5.918;2024-01-30T12:25:29;13.70;78.00
43520;DHT22;46848;51.980;5.918;2024-01-30T12:27:55;13.70;77.90
43520;DHT22;46848;51.980;5.918;2024-01-30T12:30:20;13.70;77.90
43520;DHT22;46848;51.980;5.918;2024-01-30T12:32:49;13.70;77.70
43520;DHT22;46848;51.980;5.918;2024-01-30T12:35:16;13.70;77.60
43520;DHT22;46848;51.980;5.918;2024-01-30T12:37:46;13.80;77.60
43520;DHT22;46848;51.980;5.918;2024-01-30T12:40:14;13.80;77.40
43520;DHT22;46848;51.980;5.918;2024-01-30T12:42:40;14.00;77.20
43520;DHT22;46848;51.980;5.918;2024-01-30T12:45:08;14.10;76.40
43520;DHT22;46848;51.980;5.918;2024-01-30T12:47:34;14.10;76.00
43520;DHT22;46848;51.980;5.918;2024-01-30T12:49:59;14.10;75.80
43520;DHT22;46848;51.980;5.918;2024-01-30T12:52:25;14.00;75.70
43520;DHT22;46848;51.980;5.918;2024-01-30T12:54:51;14.00;75.50
43520;DHT22;46848;51.980;5.918;2024-01-30T12:57:17;13.90;75.40
43520;DHT22;46848;51.980;5.918;2024-01-30T12:59:44;13.90;75.70
43520;DHT22;46848;51.980;5.918;2024-01-30T13:02:14;14.00;75.60
43520;DHT22;46848;51.980;5.918;2024-01-30T13:04:40;14.00;75.40
43520;DHT22;46848;51.980;5.918;2024-01-30T13:07:06;14.10;75.50
43520;DHT22;46848;51.980;5.918;2024-01-30T13:09:31;14.20;75.20
43520;DHT22;46848;51.980;5.918;2024-01-30T13:11:58;14.20;75.10
43520;DHT22;46848;51.980;5.918;2024-01-30T13:14:24;14.20;74.90
43520;DHT22;46848;51.980;5.918;2024-01-30T13:16:50;14.20;74.80
43520;DHT22;46848;51.980;5.918;2024-01-30T13:19:16;14.20;74.70
43520;DHT22;46848;51.980;5.918;2024-01-30T13:21:43;14.20;74.50
43520;DHT22;46848;51.980;5.918;2024-01-30T13:24:08;14.20;74.40
43520;DHT22;46848;51.980;5.918;2024-01-30T13:26:34;14.20;74.30
43520;DHT22;46848;51.980;5.918;2024-01-30T13:29:00;14.20;74.30
43520;DHT22;46848;51.980;5.918;2024-01-30T13:31:26;14.20;74.00
43520;DHT22;46848;51.980;5.918;2024-01-30T13:33:53;14.20;73.80
43520;DHT22;46848;51.980;5.918;2024-01-30T13:36:18;14.10;73.20
43520;DHT22;46848;51.980;5.918;2024-01-30T13:38:44;14.10;72.90
43520;DHT22;46848;51.980;5.918;2024-01-30T13:41:10;14.00;72.90
43520;DHT22;46848;51.980;5.918;2024-01-30T13:43:35;14.00;72.40
43520;DHT22;46848;51.980;5.918;2024-01-30T13:46:01;13.90;72.20
43520;DHT22;46848;51.980;5.918;2024-01-30T13:48:26;13.80;71.70
43520;DHT22;46848;51.980;5.918;2024-01-30T13:50:53;13.80;72.00
43520;DHT22;46848;51.980;5.918;2024-01-30T13:53:18;13.70;72.20
43520;DHT22;46848;51.980;5.918;2024-01-30T13:55:44;13.60;72.50
43520;DHT22;46848;51.980;5.918;2024-01-30T13:58:10;13.50;72.60
43520;DHT22;46848;51.980;5.918;2024-01-30T14:00:36;13.50;73.10
43520;DHT22;46848;51.980;5.918;2024-01-30T14:03:01;13.40;73.40
43520;DHT22;46848;51.980;5.918;2024-01-30T14:05:28;13.30;73.70
43520;DHT22;46848;51.980;5.918;2024-01-30T14:07:54;13.30;73.90
43520;DHT22;46848;51.980;5.918;2024-01-30T14:10:20;13.20;73.90
43520;DHT22;46848;51.980;5.918;2024-01-30T14:12:46;13.10;74.20
43520;DHT22;46848;51.980;5.918;2024-01-30T14:15:13;13.00;74.30
43520;DHT22;46848;51.980;5.918;2024-01-30T14:17:44;13.00;74.60
43520;DHT22;46848;51.980;5.918;2024-01-30T14:20:10;12.90;74.90
43520;DHT22;46848;51.980;5.918;2024-01-30T14:22:36;12.70;75.10
43520;DHT22;46848;51.980;5.918;2024-01-30T14:25:02;12.70;75.20
43520;DHT22;46848;51.980;5.918;2024-01-30T14:27:31;12.60;75.30
43520;DHT22;46848;51.980;5.918;2024-01-30T14:29:57;12.70;75.50
43520;DHT22;46848;51.980;5.918;2024-01-30T14:32:23;12.60;75.40
43520;DHT22;46848;51.980;5.918;2024-01-30T14:34:50;12.60;75.50
43520;DHT22;46848;51.980;5.918;2024-01-30T14:37:16;12.60;75.70
43520;DHT22;46848;51.980;5.918;2024-01-30T14:39:42;12.60;75.60
43520;DHT22;46848;51.980;5.918;2024-01-30T14:42:07;12.50;75.60
43520;DHT22;46848;51.980;5.918;2024-01-30T14:44:33;12.50;75.70
43520;DHT22;46848;51.980;5.918;2024-01-30T14:46:59;12.50;75.90
43520;DHT22;46848;51.980;5.918;2024-01-30T14:49:25;12.50;75.80
43520;DHT22;46848;51.980;5.918;2024-01-30T14:51:51;12.40;75.80
43520;DHT22;46848;51.980;5.918;2024-01-30T14:54:17;12.40;75.80
43520;DHT22;46848;51.980;5.918;2024-01-30T14:56:42;12.40;75.80
43520;DHT22;46848;51.980;5.918;2024-01-30T14:59:08;12.40;75.90
43520;DHT22;46848;51.980;5.918;2024-01-30T15:01:33;12.30;75.90
43520;DHT22;46848;51.980;5.918;2024-01-30T15:03:59;12.30;75.90
43520;DHT22;46848;51.980;5.918;2024-01-30T15:06:24;12.20;75.90
43520;DHT22;46848;51.980;5.918;2024-01-30T15:08:51;12.20;76.10
43520;DHT22;46848;51.980;5.918;2024-01-30T15:11:17;12.10;76.20
43520;DHT22;46848;51.980;5.918;2024-01-30T15:13:42;12.10;76.30
43520;DHT22;46848;51.980;5.918;2024-01-30T15:16:08;12.10;76.40
43520;DHT22;46848;51.980;5.918;2024-01-30T15:18:34;12.00;76.50
43520;DHT22;46848;51.980;5.918;2024-01-30T15:20:59;11.90;76.60
43520;DHT22;46848;51.980;5.918;2024-01-30T15:23:25;11.90;76.80
43520;DHT22;46848;51.980;5.918;2024-01-30T15:25:51;11.90;76.90
43520;DHT22;46848;51.980;5.918;2024-01-30T15:28:16;11.90;77.30
43520;DHT22;46848;51.980;5.918;2024-01-30T15:30:42;11.80;77.30